sensor_id;sensor_type;location;lat;lon;timestamp;P1;durP1;ratioP1;P2;durP2;ratioP2
27847;SDS011;15212;48.830;8.730;2022-12-11T00:00:38;14.58;;;5.45;;
27847;SDS011;15212;48.830;8.730;2022-12-11T00:03:07;15.18;;;6.00;;
27847;SDS011;15212;48.830;8.730;2022-12-11T00:05:37;12.18;;;5.50;;
27847;SDS011;15212;48.830;8.730;2022-12-11T00:08:07;13.50;;;5.92;;
27847;SDS011;15212;48.830;8.730;2022-12-11T00:10:35;13.80;;;5.83;;
27847;SDS011;15212;48.830;8.730;2022-12-11T00:13:04;14.58;;;5.60;;
27847;SDS011;15212;48.830;8.730;2022-12-11T00:15:32;13.43;;;5.30;;
27847;SDS011;15212;48.830;8.730;2022-12-11T00:18:01;12.60;;;5.47;;
27847;SDS011;15212;48.830;8.730;2022-12-11T00:20:29;12.65;;;5.42;;
27847;SDS011;15212;48.830;8.730;2022-12-11T00:22:57;13.22;;;5.95;;
27847;SDS011;15212;48.830;8.730;2022-12-11T00:25:26;15.30;;;6.55;;
27847;SDS011;15212;48.830;8.730;2022-12-11T00:27:54;14.28;;;5.87;;
27847;SDS011;15212;48.830;8.730;2022-12-11T00:30:23;14.98;;;6.72;;
27847;SDS011;15212;48.830;8.730;2022-12-11T00:32:51;11.38;;;5.20;;
27847;SDS011;15212;48.830;8.730;2022-12-11T00:35:19;17.23;;;5.65;;
27847;SDS011;15212;48.830;8.730;2022-12-11T00:37:48;13.43;;;5.72;;
27847;SDS011;15212;48.830;8.730;2022-12-11T00:40:16;14.87;;;6.33;;
27847;SDS011;15212;48.830;8.730;2022-12-11T00:42:44;14.25;;;5.92;;
27847;SDS011;15212;48.830;8.730;2022-12-11T00:45:13;14.70;;;6.50;;
27847;SDS011;15212;48.830;8.730;2022-12-11T00:47:41;14.33;;;5.83;;
27847;SDS011;15212;48.830;8.730;2022-12-11T00:50:10;13.78;;;6.08;;
27847;SDS011;15212;48.830;8.730;2022-12-11T00:52:38;15.00;;;6.03;;
27847;SDS011;15212;48.830;8.730;2022-12-11T00:55:06;13.95;;;6.00;;
27847;SDS011;15212;48.830;8.730;2022-12-11T00:57:35;15.48;;;6.28;;
27847;SDS011;15212;48.830;8.730;2022-12-11T01:00:04;18.98;;;7.35;;
27847;SDS011;15212;48.830;8.730;2022-12-11T01:02:33;18.77;;;6.42;;
27847;SDS011;15212;48.830;8.730;2022-12-11T01:05:02;14.28;;;6.12;;
27847;SDS011;15212;48.830;8.730;2022-12-11T01:07:31;17.15;;;6.10;;
27847;SDS011;15212;48.830;8.730;2022-12-11T01:09:59;14.83;;;6.75;;
27847;SDS011;15212;48.830;8.730;2022-12-11T01:12:45;15.25;;;6.40;;
27847;SDS011;15212;48.830;8.730;2022-12-11T01:15:14;16.75;;;6.95;;
27847;SDS011;15212;48.830;8.730;2022-12-11T01:17:42;20.23;;;7.90;;
27847;SDS011;15212;48.830;8.730;2022-12-11T01:20:11;15.40;;;6.70;;
27847;SDS011;15212;48.830;8.730;2022-12-11T01:22:39;17.20;;;7.83;;
27847;SDS011;15212;48.830;8.730;2022-12-11T01:25:08;16.45;;;7.15;;
27847;SDS011;15212;48.830;8.730;2022-12-11T01:27:37;19.37;;;7.83;;
27847;SDS011;15212;48.830;8.730;2022-12-11T01:30:06;19.12;;;8.13;;
27847;SDS011;15212;48.830;8.730;2022-12-11T01:32:36;24.20;;;8.38;;
27847;SDS011;15212;48.830;8.730;2022-12-11T01:35:04;17.55;;;7.92;;
27847;SDS011;15212;48.830;8.730;2022-12-11T01:37:34;17.60;;;8.05;;
27847;SDS011;15212;48.830;8.730;2022-12-11T01:40:03;16.95;;;7.53;;
27847;SDS011;15212;48.830;8.730;2022-12-11T01:42:33;20.43;;;8.25;;
27847;SDS011;15212;48.830;8.730;2022-12-11T01:45:22;21.75;;;8.35;;
27847;SDS011;15212;48.830;8.730;2022-12-11T01:47:51;22.05;;;8.35;;
27847;SDS011;15212;48.830;8.730;2022-12-11T01:50:26;22.55;;;9.18;;
27847;SDS011;15212;48.830;8.730;2022-12-11T01:52:57;17.23;;;7.30;;
27847;SDS011;15212;48.830;8.730;2022-12-11T01:55:26;21.45;;;8.13;;
27847;SDS011;15212;48.830;8.730;2022-12-11T01:57:54;17.20;;;8.00;;
27847;SDS011;15212;48.830;8.730;2022-12-11T02:00:23;17.37;;;7.87;;
27847;SDS011;15212;48.830;8.730;2022-12-11T02:02:51;20.25;;;8.08;;
27847;SDS011;15212;48.830;8.730;2022-12-11T02:05:19;18.70;;;7.75;;
27847;SDS011;15212;48.830;8.730;2022-12-11T02:07:53;15.68;;;6.78;;
27847;SDS011;15212;48.830;8.730;2022-12-11T02:10:22;17.02;;;7.12;;
27847;SDS011;15212;48.830;8.730;2022-12-11T02:13:11;18.37;;;8.18;;
27847;SDS011;15212;48.830;8.730;2022-12-11T02:15:44;16.45;;;6.85;;
27847;SDS011;15212;48.830;8.730;2022-12-11T02:18:24;17.73;;;7.83;;
27847;SDS011;15212;48.830;8.730;2022-12-11T02:24:18;20.10;;;6.65;;
27847;SDS011;15212;48.830;8.730;2022-12-11T02:30:04;17.27;;;7.33;;
27847;SDS011;15212;48.830;8.730;2022-12-11T02:32:26;18.57;;;7.40;;
27847;SDS011;15212;48.830;8.730;2022-12-11T02:35:16;19.42;;;7.20;;
27847;SDS011;15212;48.830;8.730;2022-12-11T02:37:56;16.02;;;6.53;;
27847;SDS011;15212;48.830;8.730;2022-12-11T02:40:31;18.25;;;6.78;;
27847;SDS011;15212;48.830;8.730;2022-12-11T02:43:05;17.82;;;7.37;;
27847;SDS011;15212;48.830;8.730;2022-12-11T02:45:36;16.80;;;6.95;;
27847;SDS011;15212;48.830;8.730;2022-12-11T02:48:08;18.85;;;7.35;;
27847;SDS011;15212;48.830;8.730;2022-12-11T02:50:40;20.12;;;7.67;;
27847;SDS011;15212;48.830;8.730;2022-12-11T02:53:11;20.17;;;8.10;;
27847;SDS011;15212;48.830;8.730;2022-12-11T02:55:42;23.98;;;7.97;;
27847;SDS011;15212;48.830;8.730;2022-12-11T02:58:15;23.27;;;9.20;;
27847;SDS011;15212;48.830;8.730;2022-12-11T03:00:49;23.55;;;8.28;;
27847;SDS011;15212;48.830;8.730;2022-12-11T03:03:18;31.93;;;9.88;;
27847;SDS011;15212;48.830;8.730;2022-12-11T03:05:47;24.80;;;9.28;;
27847;SDS011;15212;48.830;8.730;2022-12-11T03:08:15;26.02;;;9.95;;
27847;SDS011;15212;48.830;8.730;2022-12-11T03:10:44;25.75;;;8.68;;
27847;SDS011;15212;48.830;8.730;2022-12-11T03:13:13;25.30;;;8.85;;
27847;SDS011;15212;48.830;8.730;2022-12-11T03:15:48;22.17;;;8.80;;
27847;SDS011;15212;48.830;8.730;2022-12-11T03:18:32;28.32;;;9.80;;
27847;SDS011;15212;48.830;8.730;2022-12-11T03:21:23;25.20;;;10.08;;
27847;SDS011;15212;48.830;8.730;2022-12-11T03:24:14;34.15;;;11.48;;
27847;SDS011;15212;48.830;8.730;2022-12-11T03:26:55;32.90;;;10.03;;
27847;SDS011;15212;48.830;8.730;2022-12-11T03:29:33;25.82;;;8.93;;
27847;SDS011;15212;48.830;8.730;2022-12-11T03:32:09;24.63;;;9.03;;
27847;SDS011;15212;48.830;8.730;2022-12-11T03:34:50;26.30;;;10.13;;
27847;SDS011;15212;48.830;8.730;2022-12-11T03:37:36;31.48;;;10.72;;
27847;SDS011;15212;48.830;8.730;2022-12-11T03:40:09;28.70;;;9.60;;
27847;SDS011;15212;48.830;8.730;2022-12-11T03:42:39;27.32;;;10.18;;
27847;SDS011;15212;48.830;8.730;2022-12-11T03:45:11;26.62;;;10.65;;
27847;SDS011;15212;48.830;8.730;2022-12-11T03:47:41;28.32;;;9.98;;
27847;SDS011;15212;48.830;8.730;2022-12-11T03:50:12;27.93;;;9.95;;
27847;SDS011;15212;48.830;8.730;2022-12-11T03:52:44;27.82;;;9.68;;
27847;SDS011;15212;48.830;8.730;2022-12-11T03:55:16;32.33;;;10.53;;
27847;SDS011;15212;48.830;8.730;2022-12-11T03:57:45;28.80;;;10.55;;
27847;SDS011;15212;48.830;8.730;2022-12-11T04:00:14;28.27;;;10.13;;
27847;SDS011;15212;48.830;8.730;2022-12-11T04:02:46;36.03;;;11.83;;
27847;SDS011;15212;48.830;8.730;2022-12-11T04:05:16;28.20;;;9.85;;
27847;SDS011;15212;48.830;8.730;2022-12-11T04:07:44;23.67;;;8.20;;
27847;SDS011;15212;48.830;8.730;2022-12-11T04:10:13;26.40;;;9.00;;
27847;SDS011;15212;48.830;8.730;2022-12-11T04:12:41;30.12;;;9.58;;
27847;SDS011;15212;48.830;8.730;2022-12-11T04:15:09;25.43;;;9.08;;
27847;SDS011;15212;48.830;8.730;2022-12-11T04:17:38;27.22;;;9.60;;
27847;SDS011;15212;48.830;8.730;2022-12-11T04:20:23;29.25;;;10.15;;
27847;SDS011;15212;48.830;8.730;2022-12-11T04:23:13;24.70;;;9.58;;
27847;SDS011;15212;48.830;8.730;2022-12-11T04:26:17;28.20;;;10.00;;
27847;SDS011;15212;48.830;8.730;2022-12-11T04:28:44;29.18;;;8.68;;
27847;SDS011;15212;48.830;8.730;2022-12-11T04:31:15;26.82;;;9.03;;
27847;SDS011;15212;48.830;8.730;2022-12-11T04:33:47;24.87;;;8.63;;
27847;SDS011;15212;48.830;8.730;2022-12-11T04:36:16;24.87;;;9.20;;
27847;SDS011;15212;48.830;8.730;2022-12-11T04:38:44;27.82;;;9.55;;
27847;SDS011;15212;48.830;8.730;2022-12-11T04:41:14;25.23;;;9.40;;
27847;SDS011;15212;48.830;8.730;2022-12-11T04:43:43;28.75;;;9.98;;
27847;SDS011;15212;48.830;8.730;2022-12-11T04:46:12;23.60;;;8.73;;
27847;SDS011;15212;48.830;8.730;2022-12-11T04:48:49;27.25;;;9.28;;
27847;SDS011;15212;48.830;8.730;2022-12-11T04:51:19;24.27;;;8.23;;
27847;SDS011;15212;48.830;8.730;2022-12-11T04:53:47;27.25;;;9.18;;
27847;SDS011;15212;48.830;8.730;2022-12-11T04:56:16;25.68;;;9.18;;
27847;SDS011;15212;48.830;8.730;2022-12-11T04:58:44;24.45;;;9.20;;
27847;SDS011;15212;48.830;8.730;2022-12-11T05:01:16;20.62;;;8.28;;
27847;SDS011;15212;48.830;8.730;2022-12-11T05:03:47;28.10;;;8.60;;
27847;SDS011;15212;48.830;8.730;2022-12-11T05:06:16;24.75;;;8.75;;
27847;SDS011;15212;48.830;8.730;2022-12-11T05:08:44;25.02;;;8.63;;
27847;SDS011;15212;48.830;8.730;2022-12-11T05:11:13;25.15;;;8.88;;
27847;SDS011;15212;48.830;8.730;2022-12-11T05:13:42;32.75;;;10.48;;
27847;SDS011;15212;48.830;8.730;2022-12-11T05:16:12;31.57;;;9.18;;
27847;SDS011;15212;48.830;8.730;2022-12-11T05:18:42;22.10;;;8.65;;
27847;SDS011;15212;48.830;8.730;2022-12-11T05:21:12;23.00;;;7.80;;
27847;SDS011;15212;48.830;8.730;2022-12-11T05:23:42;19.87;;;8.45;;
27847;SDS011;15212;48.830;8.730;2022-12-11T05:26:11;23.02;;;7.53;;
27847;SDS011;15212;48.830;8.730;2022-12-11T05:28:43;17.92;;;7.22;;
27847;SDS011;15212;48.830;8.730;2022-12-11T05:31:13;19.40;;;6.53;;
27847;SDS011;15212;48.830;8.730;2022-12-11T05:33:44;21.00;;;7.28;;
27847;SDS011;15212;48.830;8.730;2022-12-11T05:36:22;22.93;;;7.10;;
27847;SDS011;15212;48.830;8.730;2022-12-11T05:38:54;20.92;;;7.70;;
27847;SDS011;15212;48.830;8.730;2022-12-11T05:41:25;19.98;;;7.90;;
27847;SDS011;15212;48.830;8.730;2022-12-11T05:43:55;20.08;;;7.20;;
27847;SDS011;15212;48.830;8.730;2022-12-11T05:46:24;16.85;;;7.03;;
27847;SDS011;15212;48.830;8.730;2022-12-11T05:48:56;21.62;;;7.45;;
27847;SDS011;15212;48.830;8.730;2022-12-11T05:51:27;21.15;;;7.40;;
27847;SDS011;15212;48.830;8.730;2022-12-11T05:53:58;20.52;;;7.10;;
27847;SDS011;15212;48.830;8.730;2022-12-11T05:56:28;21.37;;;7.40;;
27847;SDS011;15212;48.830;8.730;2022-12-11T05:58:59;19.55;;;7.30;;
27847;SDS011;15212;48.830;8.730;2022-12-11T06:01:30;18.65;;;7.28;;
27847;SDS011;15212;48.830;8.730;2022-12-11T06:04:08;20.57;;;6.85;;
27847;SDS011;15212;48.830;8.730;2022-12-11T06:06:38;18.32;;;6.72;;
27847;SDS011;15212;48.830;8.730;2022-12-11T06:09:10;16.90;;;6.90;;
27847;SDS011;15212;48.830;8.730;2022-12-11T06:11:40;16.82;;;6.53;;
27847;SDS011;15212;48.830;8.730;2022-12-11T06:14:09;20.50;;;7.55;;
27847;SDS011;15212;48.830;8.730;2022-12-11T06:16:39;22.45;;;8.35;;
27847;SDS011;15212;48.830;8.730;2022-12-11T06:19:14;22.45;;;8.55;;
27847;SDS011;15212;48.830;8.730;2022-12-11T06:21:43;23.05;;;7.97;;
27847;SDS011;15212;48.830;8.730;2022-12-11T06:24:13;22.75;;;9.05;;
27847;SDS011;15212;48.830;8.730;2022-12-11T06:26:42;23.55;;;9.25;;
27847;SDS011;15212;48.830;8.730;2022-12-11T06:29:10;29.02;;;9.70;;
27847;SDS011;15212;48.830;8.730;2022-12-11T06:31:38;32.13;;;11.63;;
27847;SDS011;15212;48.830;8.730;2022-12-11T06:34:07;32.90;;;10.75;;
27847;SDS011;15212;48.830;8.730;2022-12-11T06:36:38;32.25;;;11.85;;
27847;SDS011;15212;48.830;8.730;2022-12-11T06:39:06;33.67;;;11.18;;
27847;SDS011;15212;48.830;8.730;2022-12-11T06:41:35;27.45;;;10.55;;
27847;SDS011;15212;48.830;8.730;2022-12-11T06:44:03;34.78;;;11.00;;
27847;SDS011;15212;48.830;8.730;2022-12-11T06:46:32;36.83;;;12.15;;
27847;SDS011;15212;48.830;8.730;2022-12-11T06:49:00;37.00;;;11.85;;
27847;SDS011;15212;48.830;8.730;2022-12-11T06:51:28;32.58;;;11.50;;
27847;SDS011;15212;48.830;8.730;2022-12-11T06:53:57;38.20;;;12.03;;
27847;SDS011;15212;48.830;8.730;2022-12-11T06:56:26;36.98;;;11.50;;
27847;SDS011;15212;48.830;8.730;2022-12-11T06:58:54;35.40;;;11.15;;
27847;SDS011;15212;48.830;8.730;2022-12-11T07:01:24;35.58;;;10.28;;
27847;SDS011;15212;48.830;8.730;2022-12-11T07:03:54;32.33;;;11.57;;
27847;SDS011;15212;48.830;8.730;2022-12-11T07:06:25;27.40;;;9.95;;
27847;SDS011;15212;48.830;8.730;2022-12-11T07:08:54;25.85;;;9.83;;
27847;SDS011;15212;48.830;8.730;2022-12-11T07:11:23;25.30;;;9.33;;
27847;SDS011;15212;48.830;8.730;2022-12-11T07:13:52;22.80;;;8.25;;
27847;SDS011;15212;48.830;8.730;2022-12-11T07:16:20;16.97;;;7.45;;
27847;SDS011;15212;48.830;8.730;2022-12-11T07:18:49;21.27;;;7.78;;
27847;SDS011;15212;48.830;8.730;2022-12-11T07:21:18;19.30;;;7.10;;
27847;SDS011;15212;48.830;8.730;2022-12-11T07:23:48;20.80;;;7.10;;
27847;SDS011;15212;48.830;8.730;2022-12-11T07:26:17;20.32;;;7.05;;
27847;SDS011;15212;48.830;8.730;2022-12-11T07:28:47;18.80;;;6.67;;
27847;SDS011;15212;48.830;8.730;2022-12-11T07:31:21;17.92;;;6.03;;
27847;SDS011;15212;48.830;8.730;2022-12-11T07:33:54;20.20;;;7.22;;
27847;SDS011;15212;48.830;8.730;2022-12-11T07:36:25;18.92;;;7.53;;
27847;SDS011;15212;48.830;8.730;2022-12-11T07:38:55;17.42;;;6.85;;
27847;SDS011;15212;48.830;8.730;2022-12-11T07:41:24;15.32;;;5.75;;
27847;SDS011;15212;48.830;8.730;2022-12-11T07:43:54;12.45;;;5.45;;
27847;SDS011;15212;48.830;8.730;2022-12-11T07:46:23;11.28;;;5.53;;
27847;SDS011;15212;48.830;8.730;2022-12-11T07:48:54;14.68;;;5.35;;
27847;SDS011;15212;48.830;8.730;2022-12-11T07:51:23;16.62;;;5.53;;
27847;SDS011;15212;48.830;8.730;2022-12-11T07:53:57;17.48;;;5.42;;
27847;SDS011;15212;48.830;8.730;2022-12-11T07:56:31;13.20;;;5.40;;
27847;SDS011;15212;48.830;8.730;2022-12-11T07:59:02;12.63;;;5.45;;
27847;SDS011;15212;48.830;8.730;2022-12-11T08:01:32;18.62;;;5.30;;
27847;SDS011;15212;48.830;8.730;2022-12-11T08:04:03;17.77;;;5.65;;
27847;SDS011;15212;48.830;8.730;2022-12-11T08:06:33;14.50;;;5.42;;
27847;SDS011;15212;48.830;8.730;2022-12-11T08:09:06;16.62;;;5.90;;
27847;SDS011;15212;48.830;8.730;2022-12-11T08:11:37;9.33;;;4.50;;
27847;SDS011;15212;48.830;8.730;2022-12-11T08:14:05;10.60;;;4.10;;
27847;SDS011;15212;48.830;8.730;2022-12-11T08:16:34;12.98;;;4.83;;
27847;SDS011;15212;48.830;8.730;2022-12-11T08:19:04;11.40;;;4.37;;
27847;SDS011;15212;48.830;8.730;2022-12-11T08:21:33;12.07;;;3.92;;
27847;SDS011;15212;48.830;8.730;2022-12-11T08:24:01;11.38;;;3.70;;
27847;SDS011;15212;48.830;8.730;2022-12-11T08:26:39;9.40;;;4.70;;
27847;SDS011;15212;48.830;8.730;2022-12-11T08:29:09;11.53;;;4.85;;
27847;SDS011;15212;48.830;8.730;2022-12-11T08:31:38;14.33;;;4.42;;
27847;SDS011;15212;48.830;8.730;2022-12-11T08:34:07;16.45;;;6.97;;
27847;SDS011;15212;48.830;8.730;2022-12-11T08:36:37;18.37;;;7.03;;
27847;SDS011;15212;48.830;8.730;2022-12-11T08:39:06;18.37;;;8.15;;
27847;SDS011;15212;48.830;8.730;2022-12-11T08:41:34;19.05;;;7.47;;
27847;SDS011;15212;48.830;8.730;2022-12-11T08:44:03;24.10;;;8.65;;
27847;SDS011;15212;48.830;8.730;2022-12-11T08:46:31;22.25;;;8.58;;
27847;SDS011;15212;48.830;8.730;2022-12-11T08:49:00;21.37;;;8.03;;
27847;SDS011;15212;48.830;8.730;2022-12-11T08:51:28;20.92;;;7.42;;
27847;SDS011;15212;48.830;8.730;2022-12-11T08:53:58;22.77;;;8.05;;
27847;SDS011;15212;48.830;8.730;2022-12-11T08:56:27;21.82;;;8.25;;
27847;SDS011;15212;48.830;8.730;2022-12-11T08:59:00;22.17;;;9.25;;
27847;SDS011;15212;48.830;8.730;2022-12-11T09:01:30;22.10;;;8.15;;
27847;SDS011;15212;48.830;8.730;2022-12-11T09:03:59;20.85;;;8.28;;
27847;SDS011;15212;48.830;8.730;2022-12-11T09:06:28;29.90;;;10.40;;
27847;SDS011;15212;48.830;8.730;2022-12-11T09:08:58;30.25;;;9.33;;
27847;SDS011;15212;48.830;8.730;2022-12-11T09:11:29;34.50;;;12.40;;
27847;SDS011;15212;48.830;8.730;2022-12-11T09:14:00;25.52;;;9.40;;
27847;SDS011;15212;48.830;8.730;2022-12-11T09:16:29;29.05;;;10.88;;
27847;SDS011;15212;48.830;8.730;2022-12-11T09:18:58;28.50;;;10.35;;
27847;SDS011;15212;48.830;8.730;2022-12-11T09:21:27;34.92;;;10.78;;
27847;SDS011;15212;48.830;8.730;2022-12-11T09:23:57;24.65;;;9.30;;
27847;SDS011;15212;48.830;8.730;2022-12-11T09:26:27;26.57;;;9.50;;
27847;SDS011;15212;48.830;8.730;2022-12-11T09:28:56;33.15;;;12.18;;
27847;SDS011;15212;48.830;8.730;2022-12-11T09:31:28;26.00;;;10.48;;
27847;SDS011;15212;48.830;8.730;2022-12-11T09:34:00;31.68;;;10.53;;
27847;SDS011;15212;48.830;8.730;2022-12-11T09:36:32;30.40;;;10.45;;
27847;SDS011;15212;48.830;8.730;2022-12-11T09:39:02;22.65;;;9.48;;
27847;SDS011;15212;48.830;8.730;2022-12-11T09:44:23;24.35;;;9.18;;
27847;SDS011;15212;48.830;8.730;2022-12-11T09:47:31;21.80;;;8.65;;
27847;SDS011;15212;48.830;8.730;2022-12-11T09:50:09;22.37;;;8.30;;
27847;SDS011;15212;48.830;8.730;2022-12-11T09:52:52;34.45;;;11.00;;
27847;SDS011;15212;48.830;8.730;2022-12-11T09:55:28;22.77;;;9.85;;
27847;SDS011;15212;48.830;8.730;2022-12-11T09:58:03;27.50;;;10.32;;
27847;SDS011;15212;48.830;8.730;2022-12-11T10:00:40;24.30;;;9.30;;
27847;SDS011;15212;48.830;8.730;2022-12-11T10:06:06;18.67;;;7.22;;
27847;SDS011;15212;48.830;8.730;2022-12-11T10:14:38;18.00;;;6.30;;
27847;SDS011;15212;48.830;8.730;2022-12-11T10:20:02;15.90;;;6.15;;
27847;SDS011;15212;48.830;8.730;2022-12-11T10:22:30;14.93;;;6.22;;
27847;SDS011;15212;48.830;8.730;2022-12-11T10:25:13;17.57;;;6.60;;
27847;SDS011;15212;48.830;8.730;2022-12-11T10:27:36;16.15;;;6.78;;
27847;SDS011;15212;48.830;8.730;2022-12-11T10:35:48;14.93;;;6.20;;
27847;SDS011;15212;48.830;8.730;2022-12-11T10:38:23;16.02;;;6.55;;
27847;SDS011;15212;48.830;8.730;2022-12-11T10:40:56;23.15;;;8.33;;
27847;SDS011;15212;48.830;8.730;2022-12-11T10:43:37;19.05;;;7.85;;
27847;SDS011;15212;48.830;8.730;2022-12-11T10:46:03;58.92;;;15.90;;
27847;SDS011;15212;48.830;8.730;2022-12-11T10:48:43;14.75;;;6.05;;
27847;SDS011;15212;48.830;8.730;2022-12-11T10:51:17;16.30;;;5.72;;
27847;SDS011;15212;48.830;8.730;2022-12-11T10:53:54;23.32;;;8.63;;
27847;SDS011;15212;48.830;8.730;2022-12-11T10:56:25;18.02;;;6.67;;
27847;SDS011;15212;48.830;8.730;2022-12-11T10:58:55;19.45;;;7.47;;
27847;SDS011;15212;48.830;8.730;2022-12-11T11:01:26;49.20;;;13.48;;
27847;SDS011;15212;48.830;8.730;2022-12-11T11:04:06;22.22;;;8.55;;
27847;SDS011;15212;48.830;8.730;2022-12-11T11:07:19;18.70;;;6.80;;
27847;SDS011;15212;48.830;8.730;2022-12-11T11:09:47;15.75;;;3.80;;
27847;SDS011;15212;48.830;8.730;2022-12-11T11:12:25;6.33;;;3.40;;
27847;SDS011;15212;48.830;8.730;2022-12-11T11:15:01;9.88;;;3.75;;
27847;SDS011;15212;48.830;8.730;2022-12-11T11:17:32;19.05;;;6.47;;
27847;SDS011;15212;48.830;8.730;2022-12-11T11:20:13;17.82;;;6.47;;
27847;SDS011;15212;48.830;8.730;2022-12-11T11:22:48;18.50;;;7.25;;
27847;SDS011;15212;48.830;8.730;2022-12-11T11:25:25;20.23;;;8.08;;
27847;SDS011;15212;48.830;8.730;2022-12-11T11:28:06;18.17;;;7.25;;
27847;SDS011;15212;48.830;8.730;2022-12-11T11:30:39;18.15;;;7.35;;
27847;SDS011;15212;48.830;8.730;2022-12-11T11:33:13;16.80;;;7.05;;
27847;SDS011;15212;48.830;8.730;2022-12-11T11:35:53;21.20;;;7.97;;
27847;SDS011;15212;48.830;8.730;2022-12-11T11:38:35;18.42;;;6.58;;
27847;SDS011;15212;48.830;8.730;2022-12-11T11:41:30;12.10;;;4.05;;
27847;SDS011;15212;48.830;8.730;2022-12-11T11:44:26;15.85;;;6.58;;
27847;SDS011;15212;48.830;8.730;2022-12-11T11:47:03;28.50;;;9.23;;
27847;SDS011;15212;48.830;8.730;2022-12-11T11:49:41;22.87;;;8.65;;
27847;SDS011;15212;48.830;8.730;2022-12-11T11:52:37;20.40;;;7.42;;
27847;SDS011;15212;48.830;8.730;2022-12-11T11:58:17;26.17;;;10.05;;
27847;SDS011;15212;48.830;8.730;2022-12-11T12:00:49;22.30;;;8.63;;
27847;SDS011;15212;48.830;8.730;2022-12-11T12:03:22;24.92;;;9.28;;
27847;SDS011;15212;48.830;8.730;2022-12-11T12:06:13;30.17;;;9.63;;
27847;SDS011;15212;48.830;8.730;2022-12-11T12:12:14;23.10;;;9.08;;
27847;SDS011;15212;48.830;8.730;2022-12-11T12:15:28;22.27;;;8.43;;
27847;SDS011;15212;48.830;8.730;2022-12-11T12:18:23;22.62;;;9.15;;
27847;SDS011;15212;48.830;8.730;2022-12-11T12:24:09;25.65;;;8.65;;
27847;SDS011;15212;48.830;8.730;2022-12-11T12:26:55;21.70;;;7.80;;
27847;SDS011;15212;48.830;8.730;2022-12-11T12:29:36;24.50;;;8.98;;
27847;SDS011;15212;48.830;8.730;2022-12-11T12:35:26;22.50;;;8.78;;
27847;SDS011;15212;48.830;8.730;2022-12-11T12:40:45;18.62;;;7.72;;
27847;SDS011;15212;48.830;8.730;2022-12-11T12:43:46;17.70;;;7.28;;
27847;SDS011;15212;48.830;8.730;2022-12-11T12:46:41;18.15;;;7.00;;
27847;SDS011;15212;48.830;8.730;2022-12-11T12:49:41;18.10;;;7.40;;
27847;SDS011;15212;48.830;8.730;2022-12-11T12:52:14;18.23;;;8.38;;
27847;SDS011;15212;48.830;8.730;2022-12-11T12:55:15;23.38;;;8.33;;
27847;SDS011;15212;48.830;8.730;2022-12-11T12:58:02;19.95;;;8.18;;
27847;SDS011;15212;48.830;8.730;2022-12-11T13:00:31;22.75;;;8.40;;
27847;SDS011;15212;48.830;8.730;2022-12-11T13:03:31;20.85;;;7.50;;
27847;SDS011;15212;48.830;8.730;2022-12-11T13:06:03;21.17;;;8.15;;
27847;SDS011;15212;48.830;8.730;2022-12-11T13:09:09;24.15;;;8.55;;
27847;SDS011;15212;48.830;8.730;2022-12-11T13:11:42;24.10;;;8.83;;
27847;SDS011;15212;48.830;8.730;2022-12-11T13:16:50;24.75;;;9.45;;
27847;SDS011;15212;48.830;8.730;2022-12-11T13:21:56;26.68;;;8.65;;
27847;SDS011;15212;48.830;8.730;2022-12-11T13:24:43;21.75;;;8.55;;
27847;SDS011;15212;48.830;8.730;2022-12-11T13:27:35;21.73;;;8.05;;
27847;SDS011;15212;48.830;8.730;2022-12-11T13:33:05;23.18;;;8.95;;
27847;SDS011;15212;48.830;8.730;2022-12-11T13:35:41;22.20;;;8.45;;
27847;SDS011;15212;48.830;8.730;2022-12-11T13:38:19;27.55;;;9.00;;
27847;SDS011;15212;48.830;8.730;2022-12-11T13:40:48;19.10;;;7.65;;
27847;SDS011;15212;48.830;8.730;2022-12-11T13:43:21;21.95;;;8.10;;
27847;SDS011;15212;48.830;8.730;2022-12-11T13:45:53;26.02;;;9.18;;
27847;SDS011;15212;48.830;8.730;2022-12-11T13:48:42;28.87;;;9.95;;
27847;SDS011;15212;48.830;8.730;2022-12-11T13:51:23;28.33;;;9.83;;
27847;SDS011;15212;48.830;8.730;2022-12-11T13:54:11;26.70;;;9.38;;
27847;SDS011;15212;48.830;8.730;2022-12-11T13:57:25;26.97;;;10.13;;
27847;SDS011;15212;48.830;8.730;2022-12-11T13:59:40;29.23;;;9.10;;
27847;SDS011;15212;48.830;8.730;2022-12-11T14:02:12;24.05;;;8.95;;
27847;SDS011;15212;48.830;8.730;2022-12-11T14:05:04;20.77;;;8.15;;
27847;SDS011;15212;48.830;8.730;2022-12-11T14:07:36;27.50;;;10.03;;
27847;SDS011;15212;48.830;8.730;2022-12-11T14:10:14;23.60;;;8.83;;
27847;SDS011;15212;48.830;8.730;2022-12-11T14:12:50;22.87;;;8.88;;
27847;SDS011;15212;48.830;8.730;2022-12-11T14:15:31;29.87;;;8.95;;
27847;SDS011;15212;48.830;8.730;2022-12-11T14:18:03;20.20;;;8.45;;
27847;SDS011;15212;48.830;8.730;2022-12-11T14:20:33;25.80;;;8.78;;
27847;SDS011;15212;48.830;8.730;2022-12-11T14:23:05;25.48;;;9.83;;
27847;SDS011;15212;48.830;8.730;2022-12-11T14:25:50;25.48;;;10.13;;
27847;SDS011;15212;48.830;8.730;2022-12-11T14:28:20;26.60;;;10.48;;
27847;SDS011;15212;48.830;8.730;2022-12-11T14:30:53;32.60;;;11.15;;
27847;SDS011;15212;48.830;8.730;2022-12-11T14:33:26;28.32;;;10.75;;
27847;SDS011;15212;48.830;8.730;2022-12-11T14:35:57;34.18;;;12.20;;
27847;SDS011;15212;48.830;8.730;2022-12-11T14:38:32;30.00;;;10.95;;
27847;SDS011;15212;48.830;8.730;2022-12-11T14:43:54;39.98;;;13.13;;
27847;SDS011;15212;48.830;8.730;2022-12-11T14:46:29;41.70;;;13.22;;
27847;SDS011;15212;48.830;8.730;2022-12-11T14:49:14;40.23;;;10.63;;
27847;SDS011;15212;48.830;8.730;2022-12-11T14:51:48;48.42;;;14.07;;
27847;SDS011;15212;48.830;8.730;2022-12-11T14:54:37;41.35;;;14.45;;
27847;SDS011;15212;48.830;8.730;2022-12-11T14:57:07;42.23;;;14.28;;
27847;SDS011;15212;48.830;8.730;2022-12-11T15:05:18;40.48;;;14.15;;
27847;SDS011;15212;48.830;8.730;2022-12-11T15:08:31;32.08;;;12.55;;
27847;SDS011;15212;48.830;8.730;2022-12-11T15:13:33;44.10;;;14.85;;
27847;SDS011;15212;48.830;8.730;2022-12-11T15:16:05;41.30;;;15.25;;
27847;SDS011;15212;48.830;8.730;2022-12-11T15:18:36;50.10;;;18.77;;
27847;SDS011;15212;48.830;8.730;2022-12-11T15:21:08;50.05;;;17.57;;
27847;SDS011;15212;48.830;8.730;2022-12-11T15:26:17;44.85;;;15.05;;
27847;SDS011;15212;48.830;8.730;2022-12-11T15:29:01;49.93;;;17.37;;
27847;SDS011;15212;48.830;8.730;2022-12-11T15:31:33;47.53;;;17.37;;
27847;SDS011;15212;48.830;8.730;2022-12-11T15:34:01;43.35;;;15.85;;
27847;SDS011;15212;48.830;8.730;2022-12-11T15:36:34;47.25;;;16.52;;
27847;SDS011;15212;48.830;8.730;2022-12-11T15:39:03;43.80;;;16.67;;
27847;SDS011;15212;48.830;8.730;2022-12-11T15:41:34;44.33;;;17.10;;
27847;SDS011;15212;48.830;8.730;2022-12-11T15:44:03;52.17;;;19.35;;
27847;SDS011;15212;48.830;8.730;2022-12-11T15:46:34;45.60;;;17.85;;
27847;SDS011;15212;48.830;8.730;2022-12-11T15:49:04;46.85;;;17.15;;
27847;SDS011;15212;48.830;8.730;2022-12-11T15:51:40;49.42;;;17.35;;
27847;SDS011;15212;48.830;8.730;2022-12-11T15:54:08;53.10;;;18.82;;
27847;SDS011;15212;48.830;8.730;2022-12-11T15:56:36;69.90;;;21.23;;
27847;SDS011;15212;48.830;8.730;2022-12-11T15:59:05;56.55;;;19.73;;
27847;SDS011;15212;48.830;8.730;2022-12-11T16:01:34;51.73;;;17.62;;
27847;SDS011;15212;48.830;8.730;2022-12-11T16:04:03;52.03;;;17.73;;
27847;SDS011;15212;48.830;8.730;2022-12-11T16:06:31;56.65;;;20.97;;
27847;SDS011;15212;48.830;8.730;2022-12-11T16:09:00;55.45;;;20.88;;
27847;SDS011;15212;48.830;8.730;2022-12-11T16:11:29;41.68;;;17.12;;